Time;durP1;ratioP1;P1;durP2;ratioP2;P2;SDS_P1;SDS_P2;PMS_P1;PMS_P2;Temp;Humidity;BMP_temperature;BMP_pressure;BME280_temperature;BME280_humidity;BME280_pressure;Samples;Min_cycle;Max_cycle;Signal;HPM_P1;HPM_P2
2022/11/22 00:00:26;;;;;;;0.10;0.10;;;;;;;9.38;51.54;94580.75;4940765;28;20204;-65
2022/11/22 00:02:53;;;;;;;0.00;0.00;;;;;;;9.47;51.81;94572.13;4946776;29;20189;-67
2022/11/22 00:05:20;;;;;;;0.30;0.30;;;;;;;9.35;52.41;94571.56;4933298;29;20752;-62
2022/11/22 00:07:47;;;;;;;0.05;0.05;;;;;;;9.23;52.78;94569.16;4947014;28;20239;-69
2022/11/22 00:10:14;;;;;;;0.30;0.20;;;;;;;9.11;52.86;94573.81;4941943;29;20656;-67
2022/11/22 00:12:42;;;;;;;0.00;0.00;;;;;;;9.28;52.00;94570.22;4950958;29;20203;-66
2022/11/22 00:15:09;;;;;;;0.03;0.03;;;;;;;9.49;51.39;94577.91;4933487;29;20236;-64
2022/11/22 00:17:36;;;;;;;0.00;0.00;;;;;;;8.97;52.43;94569.28;4946980;28;20214;-65
2022/11/22 00:20:05;;;;;;;0.20;0.20;;;;;;;9.19;52.31;94575.16;4933060;29;20319;-67
2022/11/22 00:22:32;;;;;;;0.10;0.10;;;;;;;9.27;51.82;94586.97;4944961;29;20211;-65
2022/11/22 00:24:59;;;;;;;0.00;0.00;;;;;;;9.30;52.06;94589.06;4938995;28;20199;-65
2022/11/22 00:27:26;;;;;;;0.95;0.35;;;;;;;9.05;52.11;94587.88;4942140;28;20220;-67
2022/11/22 00:29:53;;;;;;;0.00;0.00;;;;;;;9.16;52.36;94578.28;4947319;29;20218;-64
2022/11/22 00:32:19;;;;;;;0.08;0.08;;;;;;;9.23;52.00;94579.63;4943640;28;20272;-66
2022/11/22 00:34:46;;;;;;;0.00;0.00;;;;;;;9.34;51.74;94584.91;4932844;28;20561;-64
2022/11/22 00:37:13;;;;;;;0.00;0.00;;;;;;;9.25;52.25;94581.22;4939944;29;20774;-69
2022/11/22 00:39:40;;;;;;;0.47;0.47;;;;;;;9.29;51.54;94577.06;4952241;28;20247;-64
2022/11/22 00:42:07;;;;;;;0.00;0.00;;;;;;;9.04;52.17;94586.31;4938369;29;20207;-66
2022/11/22 00:44:34;;;;;;;0.00;0.00;;;;;;;8.80;52.68;94585.13;4951798;28;20246;-66
2022/11/22 00:47:00;;;;;;;0.00;0.00;;;;;;;9.14;52.28;94580.38;4938161;28;20259;-65
2022/11/22 00:49:27;;;;;;;0.03;0.03;;;;;;;8.77;52.72;94584.84;4952430;28;20231;-65
2022/11/22 00:51:55;;;;;;;0.22;0.22;;;;;;;8.70;53.57;94585.06;4936568;28;20204;-67
2022/11/22 00:54:21;;;;;;;0.10;0.10;;;;;;;8.62;53.30;94582.91;4946030;29;20201;-68
2022/11/22 00:56:48;;;;;;;0.00;0.00;;;;;;;8.78;53.40;94587.19;4942955;28;20216;-66
2022/11/22 00:59:15;;;;;;;0.08;0.08;;;;;;;8.87;53.25;94592.72;4951542;28;20290;-69
2022/11/22 01:01:42;;;;;;;0.00;0.00;;;;;;;8.92;52.70;94588.31;4952093;28;20196;-65
2022/11/22 01:04:09;;;;;;;4.15;1.13;;;;;;;9.13;52.51;94590.03;4937162;28;20232;-69
2022/11/22 01:06:36;;;;;;;0.00;0.00;;;;;;;9.20;51.80;94580.13;4939702;29;20215;-71
2022/11/22 01:09:03;;;;;;;0.00;0.00;;;;;;;9.17;52.22;94583.25;4951879;28;20294;-61
2022/11/22 01:11:30;;;;;;;0.00;0.00;;;;;;;8.98;53.25;94576.88;4952498;28;20235;-67
2022/11/22 01:13:56;;;;;;;0.20;0.20;;;;;;;9.25;51.67;94581.22;4932641;29;20219;-66
2022/11/22 01:16:23;;;;;;;0.00;0.00;;;;;;;9.23;52.00;94588.50;4936011;29;20196;-65
2022/11/22 01:18:50;;;;;;;0.03;0.03;;;;;;;9.08;52.21;94582.19;4942034;28;20306;-68
2022/11/22 01:21:17;;;;;;;0.43;0.15;;;;;;;9.09;52.28;94586.34;4947854;29;20207;-66
2022/11/22 01:23:43;;;;;;;3.95;1.20;;;;;;;9.05;52.56;94571.44;4943776;28;20823;-69
2022/11/22 01:26:11;;;;;;;0.00;0.00;;;;;;;9.21;52.32;94560.00;4945808;28;20204;-65
2022/11/22 01:28:38;;;;;;;1.75;0.68;;;;;;;9.07;52.43;94570.13;4938304;29;20604;-65
2022/11/22 01:31:04;;;;;;;0.00;0.00;;;;;;;9.25;52.40;94563.69;4939154;28;20196;-67
2022/11/22 01:33:31;;;;;;;0.10;0.10;;;;;;;8.94;52.52;94570.56;4945628;29;20193;-68
2022/11/22 01:35:58;;;;;;;0.17;0.17;;;;;;;9.02;52.24;94575.34;4932091;29;20283;-65
2022/11/22 01:38:25;;;;;;;0.00;0.00;;;;;;;8.68;52.74;94571.47;4945300;29;20193;-65
2022/11/22 01:40:52;;;;;;;0.10;0.10;;;;;;;8.85;52.83;94568.72;4932306;29;20292;-65
2022/11/22 01:43:25;;;;;;;0.30;0.30;;;;;;;8.85;52.29;94566.88;4945588;29;20259;-71
2022/11/22 01:45:57;;;;;;;0.00;0.00;;;;;;;8.71;53.07;94572.78;4940574;29;20231;-67
2022/11/22 01:48:48;;;;;;;0.00;0.00;;;;;;;8.65;52.93;94571.94;4938610;28;20272;-67
2022/11/22 01:51:23;;;;;;;0.47;0.47;;;;;;;8.99;52.43;94573.25;4941796;28;20243;-62
2022/11/22 01:53:53;;;;;;;0.30;0.30;;;;;;;8.94;52.02;94569.81;4947439;29;20211;-64
2022/11/22 01:56:21;;;;;;;0.00;0.00;;;;;;;8.43;53.10;94579.09;4956228;28;20225;-67
2022/11/22 01:58:53;;;;;;;0.10;0.10;;;;;;;8.62;53.30;94577.69;4955317;28;20248;-69
2022/11/22 02:01:22;;;;;;;0.00;0.00;;;;;;;8.55;53.40;94566.66;4941833;28;20229;-69
2022/11/22 02:03:52;;;;;;;2.92;1.08;;;;;;;8.83;52.42;94557.72;4955065;28;20270;-63
2022/11/22 02:06:20;;;;;;;0.00;0.00;;;;;;;8.98;52.58;94565.63;4941500;28;20196;-67
2022/11/22 02:08:57;;;;;;;0.10;0.10;;;;;;;8.48;53.24;94563.50;4944409;28;20622;-67
2022/11/22 02:11:26;;;;;;;0.98;0.75;;;;;;;8.72;52.93;94571.75;4948930;28;20620;-69
2022/11/22 02:14:00;;;;;;;0.00;0.00;;;;;;;8.58;53.08;94574.00;4947281;29;20262;-65
2022/11/22 02:16:27;;;;;;;0.00;0.00;;;;;;;8.33;53.95;94573.81;4941369;28;20231;-67
2022/11/22 02:18:54;;;;;;;0.00;0.00;;;;;;;8.11;53.94;94586.09;4954995;28;20235;-65
2022/11/22 02:21:21;;;;;;;0.00;0.00;;;;;;;8.39;53.16;94583.25;4941383;28;20204;-71
2022/11/22 02:24:13;;;;;;;0.30;0.30;;;;;;;8.42;52.89;94580.16;4946410;28;20271;-64
2022/11/22 02:26:40;;;;;;;0.00;0.00;;;;;;;8.26;53.19;94588.88;4940429;29;20211;-67
2022/11/22 02:29:07;;;;;;;0.00;0.00;;;;;;;8.02;53.50;94582.38;4944567;28;20193;-65
2022/11/22 02:31:41;;;;;;;0.10;0.10;;;;;;;8.48;53.23;94579.16;4949366;29;20382;-63
2022/11/22 02:34:09;;;;;;;0.00;0.00;;;;;;;8.05;54.19;94576.66;4935476;29;20192;-67
2022/11/22 02:36:43;;;;;;;0.15;0.15;;;;;;;8.38;53.75;94576.44;4948432;28;20255;-70
2022/11/22 02:39:15;;;;;;;0.05;0.05;;;;;;;7.97;54.40;94582.34;4943635;29;20226;-67
2022/11/22 02:41:43;;;;;;;0.00;0.00;;;;;;;8.10;54.43;94587.16;4951762;28;20200;-68
2022/11/22 02:44:11;;;;;;;0.20;0.20;;;;;;;8.29;53.44;94574.53;4935143;29;20287;-67
2022/11/22 02:46:54;;;;;;;0.00;0.00;;;;;;;8.60;53.16;94574.53;4934748;29;20291;-64
2022/11/22 02:49:23;;;;;;;0.28;0.28;;;;;;;8.68;52.50;94570.69;4934715;29;20715;-67
2022/11/22 02:51:51;;;;;;;0.00;0.00;;;;;;;8.42;52.78;94561.88;4936066;29;20231;-66
2022/11/22 02:54:18;;;;;;;8.23;0.98;;;;;;;8.02;54.22;94561.50;4938396;29;20200;-67
2022/11/22 02:56:45;;;;;;;0.00;0.00;;;;;;;8.54;53.37;94554.63;4954201;28;20203;-65
2022/11/22 02:59:13;;;;;;;0.00;0.00;;;;;;;8.61;52.94;94559.66;4940142;28;20299;-62
2022/11/22 03:01:40;;;;;;;0.68;0.68;;;;;;;8.66;53.07;94563.09;4954127;28;20255;-68
2022/11/22 03:04:07;;;;;;;0.00;0.00;;;;;;;8.55;53.18;94561.44;4939476;28;20208;-65
2022/11/22 03:06:34;;;;;;;0.10;0.10;;;;;;;8.42;53.28;94564.47;4934432;29;20818;-68
2022/11/22 03:09:01;;;;;;;0.10;0.10;;;;;;;7.58;55.94;94568.63;4934544;29;20224;-65
2022/11/22 03:11:28;;;;;;;0.00;0.00;;;;;;;8.05;54.39;94561.78;4939230;29;20192;-67
2022/11/22 03:13:55;;;;;;;0.00;0.00;;;;;;;8.28;53.27;94560.72;4953506;28;20287;-70
2022/11/22 03:16:21;;;;;;;0.00;0.00;;;;;;;8.45;53.51;94550.91;4936137;28;20279;-65
2022/11/22 03:18:48;;;;;;;0.95;0.68;;;;;;;8.18;54.05;94563.19;4934524;29;20281;-67
2022/11/22 03:21:15;;;;;;;0.00;0.00;;;;;;;7.97;54.38;94567.44;4936264;29;20197;-66
2022/11/22 03:23:42;;;;;;;0.00;0.00;;;;;;;7.42;56.08;94566.09;4953055;28;20280;-66
2022/11/22 03:26:10;;;;;;;0.20;0.20;;;;;;;7.67;55.36;94558.53;4947489;28;20250;-68
2022/11/22 03:28:37;;;;;;;0.00;0.00;;;;;;;7.71;54.62;94565.63;4940243;29;20224;-68
2022/11/22 03:31:07;;;;;;;0.25;0.22;;;;;;;7.72;54.63;94561.22;4953181;28;20235;-66
2022/11/22 03:33:34;;;;;;;0.90;0.52;;;;;;;7.60;55.07;94563.16;4939566;28;20823;-68
2022/11/22 03:36:02;;;;;;;0.00;0.00;;;;;;;7.42;54.85;94546.03;4953490;28;20204;-66
2022/11/22 03:38:29;;;;;;;0.10;0.10;;;;;;;7.43;55.47;94552.81;4939971;28;20200;-65
2022/11/22 03:40:56;;;;;;;0.10;0.10;;;;;;;7.54;55.38;94558.91;4943663;28;20200;-72
2022/11/22 03:43:23;;;;;;;2.00;0.57;;;;;;;7.81;54.75;94562.34;4949912;29;20199;-62
2022/11/22 03:45:50;;;;;;;0.25;0.25;;;;;;;6.97;56.73;94564.50;4945193;28;20292;-66
2022/11/22 03:48:17;;;;;;;0.00;0.00;;;;;;;7.07;57.48;94569.84;4934015;29;20556;-64
2022/11/22 03:50:45;;;;;;;0.00;0.00;;;;;;;6.89;57.23;94567.53;4935281;29;20230;-71
2022/11/22 03:53:12;;;;;;;0.10;0.10;;;;;;;7.24;56.93;94574.22;4942265;28;20809;-66
2022/11/22 03:55:39;;;;;;;0.10;0.10;;;;;;;7.26;55.77;94559.91;4938256;28;20323;-66
2022/11/22 03:58:06;;;;;;;0.10;0.10;;;;;;;7.34;55.86;94564.69;4933665;29;20224;-63
2022/11/22 04:00:34;;;;;;;2.20;0.57;;;;;;;7.32;56.53;94576.41;4933546;29;20685;-72
2022/11/22 04:03:01;;;;;;;0.82;0.35;;;;;;;7.22;56.36;94583.03;4939095;29;20671;-70
2022/11/22 04:05:28;;;;;;;0.20;0.20;;;;;;;7.50;56.04;94581.31;4953233;28;20266;-64
2022/11/22 04:07:58;;;;;;;0.15;0.15;;;;;;;7.82;55.05;94576.94;4948795;28;20211;-68
2022/11/22 04:10:25;;;;;;;0.20;0.20;;;;;;;7.34;55.42;94584.75;4943516;28;20278;-65
2022/11/22 04:12:57;;;;;;;0.68;0.63;;;;;;;7.68;55.05;94575.78;4936530;28;20271;-68
2022/11/22 04:15:25;;;;;;;0.60;0.60;;;;;;;7.69;54.69;94588.56;4943439;28;20215;-66
2022/11/22 04:17:52;;;;;;;0.85;0.85;;;;;;;7.79;54.34;94593.09;4939006;28;20627;-65
2022/11/22 04:23:16;;;;;;;0.00;0.00;;;;;;;7.43;55.03;94598.94;4946342;29;20676;-65
2022/11/22 04:25:46;;;;;;;0.15;0.15;;;;;;;7.47;55.46;94590.38;4943259;28;20204;-62
2022/11/22 04:28:15;;;;;;;0.00;0.00;;;;;;;7.25;56.16;94596.63;4949205;28;20338;-69
2022/11/22 04:33:28;;;;;;;0.25;0.25;;;;;;;6.85;57.46;94618.50;4947707;28;20700;-67
2022/11/22 04:35:55;;;;;;;0.00;0.00;;;;;;;7.32;55.70;94605.06;4944940;28;20239;-67
2022/11/22 04:38:22;;;;;;;0.32;0.32;;;;;;;6.59;57.46;94613.94;4952520;28;20195;-70
2022/11/22 04:40:49;;;;;;;0.00;0.00;;;;;;;6.94;57.00;94606.66;4952757;28;20739;-67
2022/11/22 04:46:19;;;;;;;0.45;0.45;;;;;;;7.50;55.48;94609.97;4952523;28;20809;-69
2022/11/22 04:48:46;;;;;;;0.00;0.00;;;;;;;7.56;54.87;94625.44;4940075;28;20208;-69
2022/11/22 04:53:59;;;;;;;0.20;0.20;;;;;;;7.18;55.32;94626.25;4933745;29;20208;-70
2022/11/22 04:56:26;;;;;;;0.00;0.00;;;;;;;7.01;55.70;94627.31;4940406;29;20247;-64
2022/11/22 04:58:53;;;;;;;0.10;0.10;;;;;;;7.34;55.01;94636.88;4943461;28;20236;-64
2022/11/22 05:01:20;;;;;;;0.00;0.00;;;;;;;6.79;56.81;94640.28;4950899;29;20629;-62
2022/11/22 05:03:47;;;;;;;0.47;0.47;;;;;;;6.57;57.17;94642.00;4956395;28;20603;-65
2022/11/22 05:06:14;;;;;;;0.30;0.30;;;;;;;6.46;58.20;94648.09;4941087;29;20669;-70
2022/11/22 05:08:40;;;;;;;0.03;0.03;;;;;;;6.59;57.71;94649.59;4938425;28;20315;-72
2022/11/22 05:11:07;;;;;;;0.10;0.10;;;;;;;6.59;58.23;94650.38;4951925;28;20216;-65
2022/11/22 05:13:36;;;;;;;0.30;0.30;;;;;;;6.97;56.69;94634.81;4952020;28;20636;-69
2022/11/22 05:16:05;;;;;;;1.23;1.13;;;;;;;7.34;55.86;94626.44;4946558;28;20215;-65
2022/11/22 05:18:32;;;;;;;2.67;1.83;;;;;;;7.39;55.45;94629.13;4945238;28;20291;-63
2022/11/22 05:21:07;;;;;;;0.85;0.75;;;;;;;7.67;54.86;94632.34;4951461;28;20208;-71
2022/11/22 05:23:53;;;;;;;0.13;0.13;;;;;;;7.97;54.35;94635.28;4942747;28;20200;-63
2022/11/22 05:26:25;;;;;;;0.55;0.40;;;;;;;7.89;54.22;94634.94;4942241;28;20676;-62
2022/11/22 05:28:53;;;;;;;1.23;0.55;;;;;;;7.72;54.95;94639.44;4935973;29;20227;-70
2022/11/22 05:31:22;;;;;;;0.10;0.10;;;;;;;7.61;55.36;94642.97;4942641;28;20799;-67
2022/11/22 05:33:51;;;;;;;0.55;0.55;;;;;;;7.91;55.00;94635.47;4937514;29;20228;-60
2022/11/22 05:36:19;;;;;;;0.30;0.30;;;;;;;7.81;54.42;94638.00;4956030;28;20274;-68
2022/11/22 05:38:46;;;;;;;0.20;0.20;;;;;;;7.16;56.55;94636.13;4950904;28;20927;-67
2022/11/22 05:41:14;;;;;;;0.20;0.20;;;;;;;7.36;55.36;94637.41;4933874;29;20699;-64
2022/11/22 05:43:42;;;;;;;2.42;1.45;;;;;;;7.58;55.20;94646.03;4945529;29;20258;-69
2022/11/22 05:46:10;;;;;;;0.45;0.45;;;;;;;7.71;54.64;94643.06;4946953;29;20639;-67
2022/11/22 05:48:40;;;;;;;0.30;0.30;;;;;;;7.50;55.45;94634.22;4932141;29;20653;-70
2022/11/22 05:51:13;;;;;;;0.80;0.80;;;;;;;7.52;55.51;94636.59;4932515;29;20634;-70
2022/11/22 05:53:41;;;;;;;1.35;0.57;;;;;;;7.66;55.31;94640.41;4944718;28;20212;-68
2022/11/22 05:56:17;;;;;;;1.60;1.15;;;;;;;7.56;57.30;94640.28;4951334;28;20291;-64
2022/11/22 05:58:44;;;;;;;1.63;1.52;;;;;;;7.68;57.60;94649.56;4950497;28;20266;-64
2022/11/22 06:01:14;;;;;;;0.45;0.45;;;;;;;7.76;57.28;94648.34;4936067;28;20196;-66
2022/11/22 06:03:41;;;;;;;2.53;2.33;;;;;;;7.88;57.21;94639.34;4950969;28;20204;-68
2022/11/22 06:06:09;;;;;;;7.57;3.92;;;;;;;8.05;56.79;94645.28;4938177;29;20626;-68
2022/11/22 06:08:39;;;;;;;0.60;0.60;;;;;;;7.93;56.71;94652.47;4951051;28;20952;-64
2022/11/22 06:11:08;;;;;;;1.08;0.88;;;;;;;8.04;55.87;94648.16;4951400;28;20238;-63
2022/11/22 06:13:37;;;;;;;1.92;1.63;;;;;;;7.73;56.01;94651.44;4942780;28;20253;-67
2022/11/22 06:16:06;;;;;;;1.27;0.95;;;;;;;7.87;55.96;94660.47;4946726;29;20212;-69
2022/11/22 06:18:33;;;;;;;0.93;0.88;;;;;;;7.60;56.66;94657.03;4944499;28;20204;-75
2022/11/22 06:21:03;;;;;;;1.20;1.15;;;;;;;7.79;55.67;94655.69;4945691;28;20618;-66
2022/11/22 06:23:30;;;;;;;1.08;1.02;;;;;;;8.12;55.59;94656.31;4945875;28;20208;-70
2022/11/22 06:26:02;;;;;;;2.60;2.38;;;;;;;8.22;55.38;94655.63;4944175;28;20286;-74
2022/11/22 06:28:30;;;;;;;0.50;0.50;;;;;;;8.34;54.85;94653.69;4937013;28;20694;-69
2022/11/22 06:31:24;;;;;;;4.38;2.03;;;;;;;8.65;54.58;94657.38;4939946;28;20212;-64
2022/11/22 06:33:58;;;;;;;2.47;1.63;;;;;;;8.58;54.78;94654.94;4939393;28;20663;-70
2022/11/22 06:36:27;;;;;;;3.40;2.80;;;;;;;8.37;54.67;94653.22;4955090;28;20242;-66
2022/11/22 06:38:56;;;;;;;0.03;0.03;;;;;;;8.67;53.55;94653.47;4936141;28;20219;-64
2022/11/22 06:41:25;;;;;;;0.55;0.55;;;;;;;8.93;53.46;94655.25;4945977;29;20204;-70
2022/11/22 06:43:55;;;;;;;0.38;0.38;;;;;;;8.81;53.13;94659.84;4952474;28;20200;-68
2022/11/22 06:46:24;;;;;;;0.15;0.15;;;;;;;8.98;53.22;94644.03;4951045;28;20235;-67
2022/11/22 06:48:51;;;;;;;2.60;1.33;;;;;;;9.00;52.66;94647.16;4938165;28;20260;-70
2022/11/22 06:51:21;;;;;;;0.52;0.52;;;;;;;8.91;53.65;94673.00;4943253;28;20236;-69
2022/11/22 06:53:50;;;;;;;0.82;0.52;;;;;;;9.19;52.67;94683.13;4935004;29;20236;-68
2022/11/22 06:56:28;;;;;;;0.95;0.95;;;;;;;9.29;52.54;94671.16;4935662;29;20235;-67
2022/11/22 06:58:56;;;;;;;1.48;0.52;;;;;;;9.12;52.00;94669.47;4934819;29;20208;-65
2022/11/22 07:01:26;;;;;;;0.40;0.40;;;;;;;9.59;51.68;94668.72;4935183;28;20228;-67
2022/11/22 07:03:56;;;;;;;1.02;0.98;;;;;;;9.82;51.43;94671.69;4947226;29;20760;-70
2022/11/22 07:06:26;;;;;;;0.13;0.13;;;;;;;9.23;51.87;94673.72;4940277;28;20300;-70
2022/11/22 07:08:54;;;;;;;0.63;0.63;;;;;;;9.16;52.06;94678.38;4953886;28;20642;-70
2022/11/22 07:11:24;;;;;;;2.72;1.83;;;;;;;9.11;52.67;94673.13;4949500;28;20624;-67
2022/11/22 07:13:51;;;;;;;0.50;0.50;;;;;;;9.08;52.57;94659.78;4945283;29;20206;-67
2022/11/22 07:16:19;;;;;;;0.30;0.30;;;;;;;9.09;53.09;94671.81;4940315;28;20313;-70
2022/11/22 07:18:47;;;;;;;0.00;0.00;;;;;;;9.38;52.60;94656.56;4953763;28;20222;-67
2022/11/22 07:21:22;;;;;;;0.22;0.22;;;;;;;9.66;53.60;94656.97;4953736;28;20590;-62
2022/11/22 07:23:51;;;;;;;0.60;0.60;;;;;;;9.74;53.72;94664.34;4945013;28;20208;-70
2022/11/22 07:26:20;;;;;;;1.05;0.77;;;;;;;9.62;52.06;94653.28;4935972;29;20231;-69
2022/11/22 07:28:48;;;;;;;0.00;0.00;;;;;;;9.99;52.66;94651.34;4953967;28;20738;-69
2022/11/22 07:31:16;;;;;;;0.00;0.00;;;;;;;10.01;51.56;94643.25;4940139;28;20216;-66
2022/11/22 07:33:43;;;;;;;0.85;0.73;;;;;;;10.17;51.55;94643.06;4934273;28;20206;-69
2022/11/22 07:36:20;;;;;;;0.30;0.30;;;;;;;10.44;50.54;94636.81;4934682;29;20629;-70
2022/11/22 07:38:48;;;;;;;0.85;0.85;;;;;;;10.23;51.12;94641.22;4934326;29;20197;-65
2022/11/22 07:41:17;;;;;;;0.60;0.20;;;;;;;9.80;51.28;94636.34;4946956;29;20203;-66
2022/11/22 07:43:45;;;;;;;0.10;0.10;;;;;;;10.34;50.86;94616.63;4942752;28;20196;-62
2022/11/22 07:46:29;;;;;;;0.20;0.20;;;;;;;10.50;50.60;94620.03;4955413;28;20734;-62
2022/11/22 07:48:58;;;;;;;0.75;0.40;;;;;;;10.70;50.39;94620.84;4934205;29;20240;-66
2022/11/22 07:51:26;;;;;;;0.40;0.40;;;;;;;10.76;50.09;94606.72;4935464;29;20234;-72
2022/11/22 07:53:54;;;;;;;0.45;0.45;;;;;;;10.75;50.24;94612.19;4947582;28;20208;-68
2022/11/22 07:56:22;;;;;;;0.55;0.55;;;;;;;10.63;50.18;94627.41;4946883;28;20205;-64
2022/11/22 07:58:50;;;;;;;1.00;0.93;;;;;;;10.52;50.02;94642.34;4946825;28;20196;-72
2022/11/22 08:01:18;;;;;;;0.28;0.28;;;;;;;9.80;51.04;94641.59;4941664;28;20444;-66
2022/11/22 08:03:46;;;;;;;0.52;0.52;;;;;;;10.12;50.88;94637.03;4957687;28;20203;-62
2022/11/22 08:06:14;;;;;;;0.40;0.40;;;;;;;9.98;51.48;94633.28;4963970;28;20671;-62
2022/11/22 08:08:42;;;;;;;1.55;1.45;;;;;;;10.13;51.59;94635.97;4944791;28;20536;-62
2022/11/22 08:11:10;;;;;;;0.47;0.47;;;;;;;10.48;51.02;94643.09;4949826;28;20244;-68
2022/11/22 08:13:37;;;;;;;0.00;0.00;;;;;;;10.44;50.85;94648.06;4953002;28;21030;-70
2022/11/22 08:16:10;;;;;;;1.17;1.17;;;;;;;10.74;51.01;94629.78;4952777;28;20518;-70
2022/11/22 08:18:38;;;;;;;0.77;0.77;;;;;;;11.06;50.17;94625.03;4941583;29;20514;-66
2022/11/22 08:21:10;;;;;;;0.10;0.10;;;;;;;11.26;50.28;94607.69;4939005;28;20452;-64
2022/11/22 08:23:37;;;;;;;0.10;0.10;;;;;;;10.14;50.44;94634.94;4941009;28;20455;-69
2022/11/22 08:26:06;;;;;;;0.17;0.17;;;;;;;10.29;50.66;94634.97;4940700;28;20523;-65
2022/11/22 08:28:33;;;;;;;0.17;0.17;;;;;;;9.88;51.74;94628.00;4953007;28;20200;-64
2022/11/22 08:31:07;;;;;;;0.38;0.38;;;;;;;10.40;51.17;94618.19;4953426;28;20778;-71
2022/11/22 08:33:34;;;;;;;1.27;1.17;;;;;;;10.53;50.77;94625.56;4948086;28;20256;-71
2022/11/22 08:36:01;;;;;;;0.20;0.20;;;;;;;10.40;51.16;94623.44;4944512;29;20652;-66
2022/11/22 08:38:28;;;;;;;1.02;0.90;;;;;;;10.34;51.11;94621.88;4952635;28;20462;-67
2022/11/22 08:40:55;;;;;;;0.20;0.20;;;;;;;10.29;51.07;94598.31;4943433;28;20664;-76
2022/11/22 08:43:22;;;;;;;0.45;0.45;;;;;;;10.15;51.07;94592.78;4947249;28;20451;-68
2022/11/22 08:45:55;;;;;;;2.45;1.27;;;;;;;10.06;51.68;94585.66;4941063;29;20815;-71
2022/11/22 08:48:23;;;;;;;2.67;1.00;;;;;;;10.50;51.30;94573.69;4938688;28;20212;-66
2022/11/22 08:51:00;;;;;;;0.55;0.55;;;;;;;10.70;50.96;94578.94;4944970;28;20597;-63
2022/11/22 08:53:28;;;;;;;0.00;0.00;;;;;;;10.44;50.89;94577.34;4932989;29;20732;-68
2022/11/22 08:55:58;;;;;;;1.75;0.77;;;;;;;10.62;50.32;94568.97;4949886;29;20602;-64
2022/11/22 08:58:25;;;;;;;0.20;0.20;;;;;;;9.89;51.74;94577.25;4951696;28;20551;-68
2022/11/22 09:00:52;;;;;;;0.53;0.53;;;;;;;10.09;51.40;94577.34;4936519;28;20582;-69
2022/11/22 09:03:18;;;;;;;0.20;0.20;;;;;;;9.56;51.80;94564.59;4933402;29;20551;-66
2022/11/22 09:05:45;;;;;;;0.10;0.10;;;;;;;10.19;51.34;94566.88;4932857;29;20236;-65
2022/11/22 09:08:33;;;;;;;0.32;0.32;;;;;;;10.33;50.79;94575.78;4933006;29;21042;-69
2022/11/22 09:11:12;;;;;;;0.60;0.60;;;;;;;10.23;51.00;94575.78;4934822;29;20323;-67
2022/11/22 09:13:39;;;;;;;0.35;0.35;;;;;;;10.46;51.14;94564.78;4952087;28;20547;-70
2022/11/22 09:16:12;;;;;;;2.20;0.70;;;;;;;10.60;51.24;94563.19;4950911;28;20234;-69
2022/11/22 09:18:40;;;;;;;0.30;0.30;;;;;;;10.79;50.92;94560.81;4932894;29;20440;-66
2022/11/22 09:21:10;;;;;;;0.13;0.13;;;;;;;10.62;50.08;94561.09;4946721;28;20227;-62
2022/11/22 09:23:37;;;;;;;0.37;0.37;;;;;;;10.63;49.58;94554.84;4945325;28;20504;-70
2022/11/22 09:26:07;;;;;;;0.28;0.28;;;;;;;10.99;49.63;94560.78;4933224;29;20542;-70
2022/11/22 09:28:35;;;;;;;0.68;0.68;;;;;;;10.81;49.10;94543.81;4932626;29;20200;-64
2022/11/22 09:31:08;;;;;;;0.30;0.30;;;;;;;10.84;48.95;94551.13;4944683;29;20216;-66
2022/11/22 09:33:37;;;;;;;0.05;0.05;;;;;;;11.05;49.17;94557.13;4951940;28;20518;-66
2022/11/22 09:36:09;;;;;;;0.07;0.07;;;;;;;11.07;48.75;94547.94;4952071;28;20222;-69
2022/11/22 09:38:37;;;;;;;0.07;0.07;;;;;;;11.37;49.21;94549.66;4952279;28;20439;-73
2022/11/22 09:41:16;;;;;;;1.37;0.93;;;;;;;11.33;48.74;94540.00;4941646;28;20451;-64
2022/11/22 09:43:52;;;;;;;0.40;0.40;;;;;;;11.08;49.00;94546.88;4950379;29;20443;-67
2022/11/22 09:46:30;;;;;;;0.03;0.03;;;;;;;11.32;49.57;94535.78;4940117;28;21323;-66
2022/11/22 09:49:20;;;;;;;0.20;0.20;;;;;;;11.67;48.40;94535.66;4933171;29;20440;-66
2022/11/22 09:52:07;;;;;;;0.07;0.07;;;;;;;11.64;48.99;94533.56;4934343;29;20535;-67
2022/11/22 09:54:42;;;;;;;0.00;0.00;;;;;;;10.83;49.21;94536.47;4938425;29;20454;-62
2022/11/22 09:57:23;;;;;;;0.00;0.00;;;;;;;11.36;48.65;94528.97;4945868;28;20461;-72
2022/11/22 10:00:03;;;;;;;0.30;0.30;;;;;;;11.43;49.06;94529.44;4951153;28;20451;-65
2022/11/22 10:02:45;;;;;;;0.30;0.30;;;;;;;11.40;49.05;94528.16;4948898;28;20451;-71
2022/11/22 10:05:38;;;;;;;0.20;0.20;;;;;;;11.24;49.27;94511.69;4943128;28;20455;-67
2022/11/22 10:08:32;;;;;;;0.97;0.43;;;;;;;11.46;49.70;94513.19;4951544;28;20547;-65
2022/11/22 10:11:02;;;;;;;1.07;0.57;;;;;;;11.58;49.63;94517.06;4954953;28;20496;-67
2022/11/22 10:13:59;;;;;;;0.00;0.00;;;;;;;11.89;49.05;94507.19;4955159;28;20491;-72
2022/11/22 10:16:40;;;;;;;0.07;0.07;;;;;;;12.08;48.92;94505.47;4937633;28;20543;-68
2022/11/22 10:19:15;;;;;;;0.03;0.03;;;;;;;12.05;48.49;94495.53;4947838;29;20447;-74
2022/11/22 10:21:46;;;;;;;2.03;0.97;;;;;;;11.92;48.83;94491.69;4949822;28;20483;-66
2022/11/22 10:24:15;;;;;;;0.00;0.00;;;;;;;11.78;48.94;94489.94;4947896;29;20831;-66
2022/11/22 10:26:43;;;;;;;0.47;0.47;;;;;;;11.78;49.23;94489.94;4957410;28;20439;-73
2022/11/22 10:29:55;;;;;;;0.20;0.20;;;;;;;12.17;48.34;94462.59;4944871;28;20440;-75
2022/11/22 10:32:46;;;;;;;0.30;0.30;;;;;;;12.30;48.00;94458.56;4922825;29;20522;-65
2022/11/22 10:35:21;;;;;;;0.00;0.00;;;;;;;12.20;48.07;94462.06;4952959;28;20447;-73
2022/11/22 10:37:56;;;;;;;0.10;0.10;;;;;;;11.95;47.52;94459.63;4942804;28;20443;-69
2022/11/22 10:40:42;;;;;;;0.10;0.10;;;;;;;12.22;47.74;94451.28;4940362;29;20567;-64
2022/11/22 10:43:30;;;;;;;0.20;0.20;;;;;;;12.12;48.49;94448.72;4954884;28;20471;-69
2022/11/22 10:46:33;;;;;;;0.07;0.07;;;;;;;12.03;48.01;94445.13;4954566;28;20501;-70
2022/11/22 10:49:19;;;;;;;0.00;0.00;;;;;;;12.17;47.64;94441.59;4935423;29;20456;-67
2022/11/22 10:51:58;;;;;;;0.00;0.00;;;;;;;12.19;47.29;94449.19;4937003;29;20492;-69
2022/11/22 10:54:54;;;;;;;0.27;0.27;;;;;;;12.35;47.18;94439.34;4953999;28;20509;-67
2022/11/22 10:57:36;;;;;;;0.00;0.00;;;;;;;12.17;47.86;94425.84;4955689;28;20463;-65
2022/11/22 11:00:26;;;;;;;0.27;0.27;;;;;;;12.37;47.09;94427.50;4955358;28;20482;-69
2022/11/22 11:03:11;;;;;;;1.43;1.20;;;;;;;12.26;46.93;94423.41;4941648;28;20498;-61
2022/11/22 11:05:45;;;;;;;0.93;0.73;;;;;;;12.05;47.25;94432.50;4965740;28;20471;-62
2022/11/22 11:08:44;;;;;;;1.83;1.70;;;;;;;11.56;48.57;94434.41;4945971;29;20452;-68
2022/11/22 11:11:33;;;;;;;0.27;0.27;;;;;;;11.70;47.80;94419.66;4948992;28;20570;-66
2022/11/22 11:14:09;;;;;;;0.10;0.10;;;;;;;11.96;47.27;94413.94;4934926;29;20555;-66
2022/11/22 11:16:37;;;;;;;0.00;0.00;;;;;;;11.95;47.19;94427.34;4948269;29;20451;-72
2022/11/22 11:19:16;;;;;;;0.10;0.10;;;;;;;12.07;46.81;94425.16;4934649;29;20445;-65
2022/11/22 11:21:43;;;;;;;0.10;0.10;;;;;;;11.48;48.16;94432.38;4933994;28;20440;-72
2022/11/22 11:24:15;;;;;;;0.10;0.10;;;;;;;11.52;47.33;94431.53;4945803;29;20439;-76
2022/11/22 11:26:52;;;;;;;4.50;1.40;;;;;;;11.89;47.34;94421.34;4953555;29;20440;-66
2022/11/22 11:29:35;;;;;;;0.00;0.00;;;;;;;12.14;46.67;94415.91;4953790;28;20950;-68
2022/11/22 11:32:08;;;;;;;0.13;0.13;;;;;;;12.27;46.40;94421.56;4940094;29;21337;-65
2022/11/22 11:34:37;;;;;;;1.03;0.67;;;;;;;11.87;46.51;94412.19;4953454;28;20483;-62
2022/11/22 11:37:04;;;;;;;0.43;0.43;;;;;;;11.66;47.34;94419.41;4934418;29;20536;-70
2022/11/22 11:39:33;;;;;;;0.73;0.70;;;;;;;11.99;46.54;94396.84;4934212;29;20451;-67
2022/11/22 11:42:19;;;;;;;3.13;0.87;;;;;;;12.07;47.13;94393.63;4947324;29;20552;-67
2022/11/22 11:44:45;;;;;;;0.07;0.07;;;;;;;12.07;47.30;94394.44;4946478;28;20454;-68
2022/11/22 11:47:19;;;;;;;0.30;0.30;;;;;;;12.02;47.63;94398.94;4940546;28;20562;-71
2022/11/22 11:49:50;;;;;;;0.10;0.10;;;;;;;12.15;47.16;94395.69;4942303;28;20456;-71
2022/11/22 11:52:25;;;;;;;0.33;0.33;;;;;;;11.93;47.42;94366.47;4934804;28;20483;-72
2022/11/22 11:54:55;;;;;;;0.20;0.20;;;;;;;11.97;47.59;94377.97;4953172;28;20451;-68
2022/11/22 11:57:35;;;;;;;0.30;0.30;;;;;;;12.11;47.71;94384.16;4939024;29;20456;-72
2022/11/22 12:00:17;;;;;;;0.53;0.53;;;;;;;11.76;48.80;94376.56;4942890;29;20947;-75
2022/11/22 12:02:50;;;;;;;0.00;0.00;;;;;;;12.03;47.47;94371.59;4954158;28;20648;-73
2022/11/22 12:05:17;;;;;;;0.00;0.00;;;;;;;12.03;48.09;94363.72;4946575;29;20460;-67
2022/11/22 12:07:45;;;;;;;0.20;0.20;;;;;;;11.58;49.11;94392.94;4950148;28;20471;-63